Time;durP1;ratioP1;P1;durP2;ratioP2;P2;SDS_P1;SDS_P2;PMS_P1;PMS_P2;Temp;Humidity;BMP_temperature;BMP_pressure;BME280_temperature;BME280_humidity;BME280_pressure;Samples;Min_cycle;Max_cycle;Signal;HPM_P1;HPM_P2
2022/08/27 00:02:28;;;;;;;5.80;2.37;;;;;;;16.48;79.76;101576.03;5283838;28;20407;-71
2022/08/27 00:04:59;;;;;;;5.70;2.40;;;;;;;16.27;80.59;101577.41;5278497;28;20036;-71
2022/08/27 00:07:31;;;;;;;8.90;2.85;;;;;;;16.21;80.82;101567.88;5262544;28;20029;-71
2022/08/27 00:10:06;;;;;;;6.87;2.70;;;;;;;16.35;81.08;101568.41;5262258;28;20048;-72
2022/08/27 00:12:37;;;;;;;5.90;2.50;;;;;;;16.22;81.10;101573.09;5262469;28;20052;-71
2022/08/27 00:15:10;;;;;;;7.77;3.20;;;;;;;16.18;81.39;101576.72;5281209;28;20048;-72
2022/08/27 00:17:44;;;;;;;8.40;2.70;;;;;;;16.43;81.25;101570.00;5283295;28;20461;-72
2022/08/27 00:20:19;;;;;;;7.18;2.35;;;;;;;16.31;81.21;101568.53;5278070;28;20095;-72
2022/08/27 00:22:51;;;;;;;5.70;2.80;;;;;;;16.41;81.05;101567.41;5262744;28;20386;-71
2022/08/27 00:25:23;;;;;;;7.32;3.35;;;;;;;16.11;80.86;101567.22;5261002;28;20036;-72
2022/08/27 00:27:54;;;;;;;6.80;2.87;;;;;;;16.36;81.18;101566.66;5261486;28;20037;-71
2022/08/27 00:30:26;;;;;;;7.23;2.67;;;;;;;16.19;81.20;101570.56;5261357;28;20032;-71
2022/08/27 00:32:57;;;;;;;7.80;2.70;;;;;;;16.13;81.94;101559.31;5261920;28;20045;-70
2022/08/27 00:35:30;;;;;;;8.23;2.80;;;;;;;16.07;81.99;101551.56;5261874;28;20066;-71
2022/08/27 00:38:01;;;;;;;6.55;2.72;;;;;;;16.11;82.15;101561.13;5275358;28;20482;-71
2022/08/27 00:40:33;;;;;;;9.93;3.60;;;;;;;15.97;82.46;101564.94;5261620;28;20045;-70
2022/08/27 00:43:04;;;;;;;9.02;3.22;;;;;;;16.06;82.62;101558.59;5260919;28;20025;-71
2022/08/27 00:45:41;;;;;;;6.87;3.27;;;;;;;16.03;82.53;101564.81;5243412;28;20102;-71
2022/08/27 00:48:16;;;;;;;7.15;3.22;;;;;;;16.01;82.92;101568.38;5261273;28;20111;-71
2022/08/27 00:50:52;;;;;;;8.20;3.05;;;;;;;15.85;83.35;101563.44;5260273;28;20032;-71
2022/08/27 00:53:28;;;;;;;10.60;3.28;;;;;;;15.89;82.88;101569.53;5261553;28;20098;-71
2022/08/27 00:56:02;;;;;;;7.35;3.00;;;;;;;15.77;83.37;101573.25;5262200;28;20378;-71
2022/08/27 00:58:38;;;;;;;8.55;2.83;;;;;;;15.97;83.56;101566.69;5261870;28;20478;-70
2022/08/27 01:01:13;;;;;;;6.90;3.00;;;;;;;15.73;83.61;101570.69;5259834;28;20059;-69
2022/08/27 01:03:48;;;;;;;7.25;3.00;;;;;;;15.92;83.15;101569.41;5261808;28;20029;-71
2022/08/27 01:06:22;;;;;;;7.30;3.65;;;;;;;15.83;83.78;101567.88;5260734;28;20484;-70
2022/08/27 01:09:01;;;;;;;7.90;3.20;;;;;;;15.83;83.68;101561.75;5261592;28;20110;-70
2022/08/27 01:11:33;;;;;;;12.02;3.33;;;;;;;15.65;83.89;101568.25;5273669;28;20029;-70
2022/08/27 01:14:05;;;;;;;9.57;3.07;;;;;;;15.75;84.40;101564.53;5282852;28;20480;-71
2022/08/27 01:16:40;;;;;;;7.32;3.25;;;;;;;15.50;84.62;101558.91;5263801;28;20032;-71
2022/08/27 01:19:26;;;;;;;6.18;3.00;;;;;;;15.58;84.63;101558.75;5264369;28;20035;-71
2022/08/27 01:22:26;;;;;;;8.93;3.63;;;;;;;15.52;84.76;101557.13;5282030;28;20025;-70
2022/08/27 01:25:03;;;;;;;8.38;3.38;;;;;;;15.54;84.73;101557.97;5279977;28;20127;-71
2022/08/27 01:27:35;;;;;;;7.35;3.08;;;;;;;15.64;84.63;101554.22;5282944;28;20035;-71
2022/08/27 01:30:08;;;;;;;;;;;;;;;15.64;83.45;101556.84;5278970;28;20102;-71
2022/08/27 01:32:39;;;;;;;6.03;2.88;;;;;;;15.58;84.27;101553.50;5261647;28;20320;-71
2022/08/27 01:35:14;;;;;;;9.30;4.03;;;;;;;15.61;84.56;101548.19;5260723;28;20037;-71
2022/08/27 01:37:49;;;;;;;15.52;4.00;;;;;;;15.42;84.78;101558.22;5261233;28;20108;-71
2022/08/27 01:40:21;;;;;;;5.32;3.05;;;;;;;15.46;85.16;101558.13;5261045;28;20033;-71
2022/08/27 01:42:55;;;;;;;7.63;3.27;;;;;;;15.49;85.26;101557.22;5261558;28;20044;-71
2022/08/27 01:45:30;;;;;;;9.52;3.55;;;;;;;15.30;85.42;101557.56;5260636;28;20021;-70
2022/08/27 01:48:02;;;;;;;6.65;2.85;;;;;;;15.31;85.93;101548.81;5261610;28;20029;-71
2022/08/27 01:50:37;;;;;;;7.90;3.47;;;;;;;15.28;85.90;101554.13;5260474;28;20037;-71
2022/08/27 01:53:15;;;;;;;7.70;3.20;;;;;;;15.16;86.13;101546.47;5261208;28;20594;-71
2022/08/27 01:55:48;;;;;;;6.53;3.33;;;;;;;15.37;86.00;101547.78;5261119;28;20076;-70
2022/08/27 01:58:25;;;;;;;6.30;3.17;;;;;;;15.33;86.00;101554.03;5276461;28;20029;-72
2022/08/27 02:01:02;;;;;;;10.75;3.08;;;;;;;15.10;86.37;101544.84;5260511;28;20055;-72
2022/08/27 02:03:35;;;;;;;7.88;3.15;;;;;;;15.15;86.31;101547.38;5261205;28;20485;-71
2022/08/27 02:06:09;;;;;;;10.95;3.65;;;;;;;15.21;86.05;101549.00;5262438;28;20033;-72
2022/08/27 02:08:41;;;;;;;7.75;4.10;;;;;;;14.99;86.69;101543.28;5264882;28;20077;-71
2022/08/27 02:11:12;;;;;;;11.20;4.23;;;;;;;15.15;86.81;101539.50;5264377;28;20033;-71
2022/08/27 02:13:44;;;;;;;7.67;3.83;;;;;;;14.94;87.14;101536.38;5265000;28;20033;-71
2022/08/27 02:16:15;;;;;;;7.17;4.17;;;;;;;15.11;86.88;101538.69;5264575;28;20477;-71
2022/08/27 02:18:47;;;;;;;8.57;3.47;;;;;;;15.00;87.46;101540.66;5265293;28;20482;-71
2022/08/27 02:21:18;;;;;;;9.50;3.77;;;;;;;15.08;87.38;101538.72;5264565;28;20037;-71
2022/08/27 02:23:50;;;;;;;8.10;3.67;;;;;;;14.94;87.74;101530.25;5264877;28;20064;-71
2022/08/27 02:26:21;;;;;;;9.07;3.80;;;;;;;15.06;87.85;101539.69;5264425;28;20485;-71
2022/08/27 02:28:54;;;;;;;7.68;3.88;;;;;;;14.90;87.61;101525.97;5283102;28;20103;-71
2022/08/27 02:31:25;;;;;;;7.47;4.15;;;;;;;14.77;88.03;101533.22;5285025;28;20033;-70
2022/08/27 02:33:56;;;;;;;8.33;3.77;;;;;;;14.95;87.94;101529.38;5285454;28;20036;-71
2022/08/27 02:36:28;;;;;;;13.70;4.93;;;;;;;14.93;88.04;101524.16;5267010;28;20107;-71
2022/08/27 02:39:00;;;;;;;10.90;3.90;;;;;;;14.79;88.29;101526.16;5284859;28;20048;-71
2022/08/27 02:41:31;;;;;;;6.60;4.00;;;;;;;14.80;88.31;101521.81;5284523;28;20401;-71
2022/08/27 02:44:04;;;;;;;8.13;4.40;;;;;;;14.92;88.01;101526.81;5283765;28;20492;-71
2022/08/27 02:46:40;;;;;;;8.30;3.97;;;;;;;14.79;88.63;101520.91;5284800;28;20028;-71
2022/08/27 02:49:12;;;;;;;11.70;4.57;;;;;;;14.72;88.81;101529.81;5285402;28;20044;-71
2022/08/27 02:51:43;;;;;;;9.50;4.65;;;;;;;14.84;88.95;101523.47;5284286;28;20052;-71
2022/08/27 02:54:14;;;;;;;9.13;4.50;;;;;;;14.68;88.77;101526.38;5285366;28;20048;-71
2022/08/27 02:56:46;;;;;;;6.20;3.70;;;;;;;14.90;88.60;101520.72;5266566;28;20045;-70
2022/08/27 02:59:18;;;;;;;8.00;3.60;;;;;;;14.67;88.72;101526.41;5271279;28;20055;-69
2022/08/27 03:01:49;;;;;;;9.60;4.30;;;;;;;14.75;88.93;101522.75;5263609;28;20496;-70
2022/08/27 03:04:21;;;;;;;7.77;4.33;;;;;;;14.97;88.87;101531.97;5264308;28;20029;-71
2022/08/27 03:06:53;;;;;;;8.70;4.22;;;;;;;14.81;88.99;101536.63;5281053;28;20133;-71
2022/08/27 03:09:25;;;;;;;9.50;4.78;;;;;;;14.94;89.11;101527.63;5284680;28;20124;-71
2022/08/27 03:11:57;;;;;;;10.60;5.13;;;;;;;14.82;89.08;101531.38;5284553;28;20028;-71
2022/08/27 03:14:28;;;;;;;10.20;4.55;;;;;;;15.03;89.24;101527.47;5276046;28;20504;-71
2022/08/27 03:18:16;;;;;;;9.47;5.00;;;;;;;14.81;88.65;101527.03;5263403;28;20048;-71
2022/08/27 03:19:51;;;;;;;9.88;5.03;;;;;;;15.05;89.08;101530.94;5263140;28;20048;-72
2022/08/27 03:22:22;;;;;;;7.13;4.57;;;;;;;14.88;88.99;101533.88;5262979;28;20029;-71
2022/08/27 03:24:55;;;;;;;9.33;4.87;;;;;;;14.89;88.97;101532.09;5263116;28;20082;-72
2022/08/27 03:27:26;;;;;;;7.95;4.70;;;;;;;14.99;88.98;101527.53;5263615;28;20040;-71
2022/08/27 03:29:58;;;;;;;7.87;4.30;;;;;;;14.97;88.97;101535.44;5263260;28;20397;-71
2022/08/27 03:32:30;;;;;;;8.65;5.35;;;;;;;14.96;89.35;101528.50;5263485;28;20037;-71
2022/08/27 03:35:01;;;;;;;11.77;5.30;;;;;;;14.99;88.89;101528.44;5263083;28;20051;-71
2022/08/27 03:37:33;;;;;;;9.77;4.77;;;;;;;14.73;88.55;101531.53;5263240;28;20032;-71
2022/08/27 03:40:06;;;;;;;12.05;4.82;;;;;;;14.86;89.31;101527.81;5262982;28;20080;-71
2022/08/27 03:42:39;;;;;;;10.15;5.00;;;;;;;14.82;89.33;101527.88;5263153;28;20064;-71
2022/08/27 03:45:11;;;;;;;10.27;5.10;;;;;;;14.71;89.74;101535.94;5263704;28;20537;-71
2022/08/27 03:47:42;;;;;;;10.05;5.13;;;;;;;14.63;89.56;101532.59;5263482;28;20033;-70
2022/08/27 03:50:14;;;;;;;9.50;5.27;;;;;;;14.72;89.76;101532.44;5245025;28;20041;-71
2022/08/27 03:52:45;;;;;;;9.60;4.53;;;;;;;14.77;89.66;101534.06;5277666;28;20048;-71
2022/08/27 03:55:17;;;;;;;12.50;5.72;;;;;;;14.74;90.11;101539.38;5283443;28;20118;-71
2022/08/27 03:57:48;;;;;;;10.87;5.67;;;;;;;14.71;90.21;101531.56;5284089;28;20123;-70
2022/08/27 04:00:20;;;;;;;9.00;5.47;;;;;;;14.82;90.21;101534.00;5281310;28;20036;-71
2022/08/27 04:02:52;;;;;;;11.63;5.93;;;;;;;14.82;89.94;101527.88;5283908;28;20417;-70
2022/08/27 04:05:23;;;;;;;10.00;6.35;;;;;;;14.84;89.97;101524.31;5265291;28;20032;-70
2022/08/27 04:07:55;;;;;;;9.97;5.20;;;;;;;14.82;90.19;101530.50;5283133;28;20035;-70
2022/08/27 04:10:26;;;;;;;8.70;5.00;;;;;;;14.73;90.25;101535.03;5283169;28;20040;-70
2022/08/27 04:12:57;;;;;;;12.17;6.13;;;;;;;14.61;89.88;101529.13;5283795;28;20036;-70
2022/08/27 04:15:29;;;;;;;8.80;5.77;;;;;;;14.71;90.26;101530.69;5263216;28;20136;-70
2022/08/27 04:18:01;;;;;;;11.03;5.53;;;;;;;14.66;90.40;101529.91;5284087;28;20031;-70
2022/08/27 04:20:32;;;;;;;10.77;5.03;;;;;;;14.73;90.32;101523.66;5282959;28;20033;-70
2022/08/27 04:23:04;;;;;;;9.93;6.10;;;;;;;14.69;90.38;101528.09;5283599;28;20043;-72
2022/08/27 04:25:41;;;;;;;14.63;6.72;;;;;;;14.67;90.80;101522.03;5264509;28;20119;-70
2022/08/27 04:28:14;;;;;;;11.32;5.65;;;;;;;14.61;90.97;101530.00;5282852;28;20047;-70
2022/08/27 04:30:46;;;;;;;11.55;5.45;;;;;;;14.52;91.14;101524.88;5281047;28;20033;-70
2022/08/27 04:33:17;;;;;;;11.77;5.60;;;;;;;14.52;91.14;101531.00;5282680;28;20037;-70
2022/08/27 04:36:01;;;;;;;11.13;6.33;;;;;;;14.55;91.53;101528.31;5282576;28;20549;-70
2022/08/27 04:38:32;;;;;;;8.93;5.55;;;;;;;14.48;91.49;101534.56;5282852;28;20028;-70
2022/08/27 04:41:19;;;;;;;9.85;5.22;;;;;;;14.50;91.52;101539.78;5282492;28;20043;-70
2022/08/27 04:43:55;;;;;;;11.50;6.05;;;;;;;14.41;91.78;101535.56;5283251;28;20028;-70
2022/08/27 04:46:29;;;;;;;10.75;5.53;;;;;;;14.51;91.94;101542.38;5280354;28;20148;-71
2022/08/27 04:49:03;;;;;;;9.32;5.20;;;;;;;14.33;92.36;101545.28;5282950;28;20077;-71
2022/08/27 04:51:35;;;;;;;9.50;6.18;;;;;;;14.33;92.56;101542.66;5282016;28;20379;-70
2022/08/27 04:54:07;;;;;;;8.73;6.28;;;;;;;14.51;92.60;101542.38;5264538;28;20036;-70
2022/08/27 04:56:39;;;;;;;10.48;6.20;;;;;;;14.56;92.77;101540.53;5282108;28;20081;-71
2022/08/27 04:59:11;;;;;;;11.73;6.63;;;;;;;14.50;92.59;101538.00;5282627;28;20036;-70
2022/08/27 05:01:42;;;;;;;8.05;5.88;;;;;;;14.67;92.73;101540.38;5280028;28;20059;-71
2022/08/27 05:04:17;;;;;;;12.20;7.40;;;;;;;14.66;92.65;101543.91;5282236;28;20119;-71
2022/08/27 05:06:49;;;;;;;11.10;6.57;;;;;;;14.70;92.56;101547.31;5281734;28;20056;-71
2022/08/27 05:09:20;;;;;;;13.15;6.75;;;;;;;14.75;92.95;101548.97;5282479;28;20035;-70
2022/08/27 05:11:54;;;;;;;14.27;6.43;;;;;;;14.75;92.74;101542.88;5281979;28;20028;-70
2022/08/27 05:14:28;;;;;;;10.35;6.70;;;;;;;14.86;92.94;101540.94;5282183;28;20433;-70
2022/08/27 05:17:00;;;;;;;9.35;6.07;;;;;;;14.78;92.61;101545.44;5279656;28;20394;-70
2022/08/27 05:19:31;;;;;;;10.23;6.50;;;;;;;14.93;92.50;101544.28;5264457;28;20032;-70
2022/08/27 05:22:03;;;;;;;12.33;7.10;;;;;;;14.90;92.02;101553.09;5281719;28;20028;-70
2022/08/27 05:24:34;;;;;;;13.97;7.20;;;;;;;14.97;92.37;101543.31;5281880;28;20039;-71
2022/08/27 05:27:05;;;;;;;11.57;6.53;;;;;;;15.11;92.26;101550.94;5281527;28;20086;-72
2022/08/27 05:29:37;;;;;;;11.53;6.57;;;;;;;15.04;92.11;101546.72;5282136;28;20431;-69
2022/08/27 05:32:08;;;;;;;13.53;7.17;;;;;;;15.23;92.27;101548.09;5280077;28;20064;-71
2022/08/27 05:34:39;;;;;;;12.37;6.93;;;;;;;15.18;91.87;101549.06;5282207;28;20047;-71
2022/08/27 05:37:11;;;;;;;9.70;6.50;;;;;;;15.29;91.25;101553.22;5263358;28;20025;-71
2022/08/27 05:39:42;;;;;;;14.83;6.60;;;;;;;15.19;90.36;101549.03;5282378;28;20466;-71
2022/08/27 05:42:14;;;;;;;12.73;7.23;;;;;;;15.16;90.64;101556.13;5285634;28;20470;-71
2022/08/27 05:44:45;;;;;;;10.73;7.50;;;;;;;15.17;90.86;101561.34;5286590;28;20116;-72
2022/08/27 05:47:17;;;;;;;10.47;6.60;;;;;;;15.12;90.74;101557.94;5284306;28;20118;-72
2022/08/27 05:49:53;;;;;;;14.40;7.43;;;;;;;15.19;91.47;101561.31;5285845;28;20373;-72
2022/08/27 05:52:24;;;;;;;12.27;6.90;;;;;;;15.30;92.13;101554.09;5286147;28;20055;-72
2022/08/27 05:54:55;;;;;;;10.27;6.87;;;;;;;15.30;91.68;101560.19;5285727;28;20029;-72
2022/08/27 05:57:27;;;;;;;12.37;7.57;;;;;;;15.32;91.19;101558.38;5286287;28;20036;-72
2022/08/27 06:02:48;;;;;;;15.20;7.45;;;;;;;15.51;92.35;101563.28;5283880;28;20040;-73
2022/08/27 06:05:20;;;;;;;13.00;6.70;;;;;;;15.58;91.56;101564.88;5265678;28;20037;-72
2022/08/27 06:07:51;;;;;;;10.03;6.70;;;;;;;15.57;90.72;101568.41;5264857;28;20025;-72
2022/08/27 06:10:23;;;;;;;14.83;6.57;;;;;;;15.68;91.10;101573.41;5264042;28;20542;-72
2022/08/27 06:12:54;;;;;;;13.47;6.53;;;;;;;15.71;90.90;101570.72;5265147;28;20083;-72
2022/08/27 06:15:25;;;;;;;10.67;6.17;;;;;;;15.72;90.44;101580.34;5264582;28;20087;-72
2022/08/27 06:17:57;;;;;;;12.30;6.60;;;;;;;15.71;90.52;101573.34;5246768;28;20029;-72
2022/08/27 06:20:28;;;;;;;18.03;6.40;;;;;;;15.73;90.09;101578.59;5283228;28;20159;-73
2022/08/27 06:23:00;;;;;;;9.33;6.00;;;;;;;15.81;91.53;101579.31;5285563;28;20077;-72
2022/08/27 06:25:31;;;;;;;11.37;6.30;;;;;;;15.85;90.82;101581.84;5285714;28;20042;-72
2022/08/27 06:28:02;;;;;;;12.27;6.40;;;;;;;15.90;90.99;101578.25;5267396;28;20089;-72
2022/08/27 06:30:34;;;;;;;13.73;6.40;;;;;;;15.90;89.65;101578.25;5275866;28;20028;-72
2022/08/27 06:33:06;;;;;;;11.88;5.80;;;;;;;15.97;89.62;101574.56;5265484;28;20108;-72
2022/08/27 06:35:37;;;;;;;12.47;6.20;;;;;;;15.95;88.71;101582.50;5279124;28;20040;-73
2022/08/27 06:38:08;;;;;;;11.00;5.87;;;;;;;15.98;89.32;101577.16;5285161;28;20031;-72
2022/08/27 06:40:40;;;;;;;13.43;6.80;;;;;;;16.06;90.26;101581.41;5282921;28;20059;-72
2022/08/27 06:43:12;;;;;;;12.05;6.40;;;;;;;16.01;88.80;101577.09;5285181;28;20108;-71
2022/08/27 06:45:43;;;;;;;11.70;6.50;;;;;;;16.04;89.21;101576.19;5284245;28;20458;-72
2022/08/27 06:48:15;;;;;;;11.20;5.80;;;;;;;16.11;89.08;101584.78;5285006;28;20032;-72
2022/08/27 06:50:47;;;;;;;11.52;6.00;;;;;;;16.16;87.58;101580.28;5281426;28;20040;-72
2022/08/27 06:53:18;;;;;;;13.93;7.57;;;;;;;16.19;87.94;101582.84;5264619;28;20052;-71
2022/08/27 06:55:50;;;;;;;15.33;7.47;;;;;;;16.28;88.08;101573.88;5263855;28;20029;-72
2022/08/27 06:58:23;;;;;;;11.25;6.32;;;;;;;16.32;87.78;101586.06;5264041;28;20107;-72
2022/08/27 07:00:55;;;;;;;12.77;6.85;;;;;;;16.28;86.85;101576.53;5245768;28;20045;-71
2022/08/27 07:03:26;;;;;;;10.30;6.38;;;;;;;16.40;88.36;101576.19;5245929;28;20375;-72
2022/08/27 07:06:04;;;;;;;9.87;5.53;;;;;;;16.51;88.84;101573.31;5277488;28;20354;-72
2022/08/27 07:08:36;;;;;;;9.68;5.72;;;;;;;16.60;88.20;101578.34;5284452;28;20036;-72
2022/08/27 07:11:09;;;;;;;11.20;5.47;;;;;;;16.58;87.79;101590.66;5284191;28;20036;-72
2022/08/27 07:13:41;;;;;;;11.15;5.63;;;;;;;16.66;86.74;101574.69;5284684;28;20263;-72
2022/08/27 07:16:15;;;;;;;8.87;5.27;;;;;;;16.80;88.09;101579.59;5265753;28;20369;-72
2022/08/27 07:18:52;;;;;;;11.98;5.70;;;;;;;16.81;86.03;101594.47;5273918;28;20039;-72
2022/08/27 07:21:25;;;;;;;12.05;4.90;;;;;;;16.98;88.16;101589.69;5264764;28;20124;-73
2022/08/27 07:24:03;;;;;;;;;;;;;;;17.22;87.02;101589.91;5263460;28;20039;-72
2022/08/27 07:26:37;;;;;;;12.50;5.82;;;;;;;17.08;85.85;101590.28;5282048;28;19913;-73
2022/08/27 07:29:11;;;;;;;8.07;4.80;;;;;;;17.22;85.71;101588.16;5283986;28;20024;-72
2022/08/27 07:31:43;;;;;;;7.97;5.15;;;;;;;17.24;84.62;101586.34;5282504;28;20107;-73
2022/08/27 07:34:14;;;;;;;9.87;5.33;;;;;;;17.33;85.53;101587.84;5282292;28;20029;-73
2022/08/27 07:36:46;;;;;;;8.17;4.63;;;;;;;17.24;81.96;101591.63;5268285;28;20354;-73
2022/08/27 07:39:17;;;;;;;12.17;4.80;;;;;;;17.30;83.98;101590.56;5272752;28;20492;-74
2022/08/27 07:44:41;;;;;;;10.32;4.70;;;;;;;17.20;82.95;101592.59;5248180;28;20032;-72
2022/08/27 07:47:12;;;;;;;12.93;4.80;;;;;;;17.20;81.49;101594.38;5283243;28;20078;-73
2022/08/27 07:49:43;;;;;;;8.50;5.27;;;;;;;17.20;82.27;101597.00;5263969;28;20115;-73
2022/08/27 07:52:15;;;;;;;20.43;6.80;;;;;;;17.21;82.62;101598.72;5250604;28;20053;-73
2022/08/27 07:54:46;;;;;;;9.20;4.82;;;;;;;17.19;82.08;101598.75;5263257;28;20436;-73
2022/08/27 07:57:18;;;;;;;9.60;5.87;;;;;;;17.20;83.60;101602.28;5267040;28;20036;-73
2022/08/27 07:59:51;;;;;;;9.10;5.10;;;;;;;17.31;82.94;101605.50;5281541;28;20044;-73
2022/08/27 08:02:23;;;;;;;15.57;6.75;;;;;;;17.61;81.49;101608.13;5281895;28;20037;-73
2022/08/27 08:04:54;;;;;;;8.30;5.20;;;;;;;17.72;79.80;101597.28;5282678;28;20129;-73
2022/08/27 08:07:27;;;;;;;10.30;4.70;;;;;;;17.86;78.87;101609.16;5279514;28;20036;-73
2022/08/27 08:09:58;;;;;;;7.22;4.25;;;;;;;17.88;77.43;101606.50;5255489;28;20033;-73
2022/08/27 08:12:30;;;;;;;7.70;4.40;;;;;;;17.95;78.19;101602.78;5243518;28;20040;-73
2022/08/27 08:15:03;;;;;;;10.52;4.22;;;;;;;18.07;77.26;101601.53;5260820;28;20389;-73
2022/08/27 08:17:36;;;;;;;7.00;3.95;;;;;;;18.25;76.08;101599.22;5261560;28;20159;-73
2022/08/27 08:20:10;;;;;;;9.02;4.35;;;;;;;18.28;75.65;101599.97;5261887;28;20462;-73
2022/08/27 08:22:42;;;;;;;8.32;5.05;;;;;;;18.23;75.48;101608.03;5268571;28;20021;-73
2022/08/27 08:25:14;;;;;;;8.10;4.15;;;;;;;18.27;73.25;101607.94;5272240;28;20040;-73
2022/08/27 08:27:46;;;;;;;10.15;3.95;;;;;;;18.18;74.23;101598.56;5265866;28;20059;-73
2022/08/27 08:30:18;;;;;;;9.32;4.40;;;;;;;18.38;77.18;101605.81;5257381;28;20032;-73
2022/08/27 08:32:50;;;;;;;9.03;4.00;;;;;;;18.54;76.85;101611.47;5262685;28;20040;-73
2022/08/27 08:35:23;;;;;;;8.68;4.88;;;;;;;18.65;73.62;101613.75;5260941;28;20509;-73
2022/08/27 08:37:54;;;;;;;9.48;4.05;;;;;;;18.67;72.68;101615.41;5268564;28;20507;-73
2022/08/27 08:40:39;;;;;;;7.17;4.07;;;;;;;18.80;73.91;101612.38;5280338;28;20024;-73
2022/08/27 08:43:29;;;;;;;8.93;5.55;;;;;;;18.93;71.57;101617.22;5278476;28;20020;-73
2022/08/27 08:46:39;;;;;;;8.55;4.63;;;;;;;19.08;73.00;101615.81;5243111;28;20033;-73
2022/08/27 08:49:22;;;;;;;9.88;4.57;;;;;;;19.15;73.65;101613.81;5155751;29;20421;-73
2022/08/27 08:51:59;;;;;;;7.57;4.22;;;;;;;19.22;69.17;101614.47;5253971;28;20041;-73
2022/08/27 08:54:32;;;;;;;9.52;4.40;;;;;;;19.39;69.57;101611.22;5279130;28;20117;-73
2022/08/27 08:57:10;;;;;;;6.70;4.03;;;;;;;19.37;67.09;101606.00;5281882;28;20078;-73
2022/08/27 08:59:50;;;;;;;6.25;3.40;;;;;;;19.64;68.79;101613.78;5281884;28;20025;-73
2022/08/27 09:02:21;;;;;;;6.95;3.20;;;;;;;19.94;66.72;101609.16;5280294;28;20024;-73
2022/08/27 09:04:53;;;;;;;6.97;3.27;;;;;;;20.13;64.10;101619.88;5281725;28;20498;-72
2022/08/27 09:07:33;;;;;;;5.47;3.30;;;;;;;20.36;64.75;101621.59;5279349;28;20035;-72
2022/08/27 09:10:42;;;;;;;5.80;3.03;;;;;;;20.68;65.56;101619.44;5266914;28;20074;-73
2022/08/27 09:13:25;;;;;;;6.47;2.67;;;;;;;20.63;65.70;101618.75;5282153;28;20040;-73
2022/08/27 09:16:01;;;;;;;6.57;2.70;;;;;;;20.46;61.48;101622.09;5263513;28;20040;-72
2022/08/27 09:18:35;;;;;;;5.45;2.80;;;;;;;20.31;61.64;101623.56;5264218;28;20074;-72
2022/08/27 09:21:34;;;;;;;7.40;2.42;;;;;;;20.50;67.03;101621.03;5280735;28;20032;-70
2022/08/27 09:24:36;;;;;;;6.65;2.40;;;;;;;20.58;65.28;101618.09;5280526;28;20029;-71
2022/08/27 09:27:11;;;;;;;7.13;2.73;;;;;;;20.67;62.81;101630.09;5237453;28;20041;-71
2022/08/27 09:29:52;;;;;;;8.75;2.83;;;;;;;20.59;60.31;101625.09;5282086;28;20021;-70
2022/08/27 09:32:27;;;;;;;4.80;2.30;;;;;;;20.65;59.14;101619.56;5247374;28;20553;-71
2022/08/27 09:35:02;;;;;;;5.38;2.65;;;;;;;20.59;59.99;101619.78;5282178;28;20021;-70
2022/08/27 09:37:46;;;;;;;7.05;2.60;;;;;;;20.66;60.01;101623.09;5276528;28;20051;-71
2022/08/27 09:40:32;;;;;;;8.43;2.80;;;;;;;20.67;58.90;101620.41;5269407;28;20330;-71
2022/08/27 09:43:19;;;;;;;5.00;2.72;;;;;;;20.66;58.50;101620.47;5269171;28;20032;-71
2022/08/27 09:45:56;;;;;;;4.38;2.47;;;;;;;20.44;57.22;101623.09;5261187;28;20083;-70
2022/08/27 09:48:31;;;;;;;7.55;3.22;;;;;;;20.16;58.45;101629.50;5260915;28;20033;-71
2022/08/27 09:51:08;;;;;;;4.03;2.05;;;;;;;20.43;58.66;101621.34;5259981;28;20029;-70
2022/08/27 09:53:47;;;;;;;5.38;2.30;;;;;;;20.71;56.94;101626.41;5261222;28;20060;-70
2022/08/27 09:56:40;;;;;;;4.53;2.42;;;;;;;21.03;56.46;101616.22;5261558;28;20029;-70
2022/08/27 09:59:23;;;;;;;5.90;2.10;;;;;;;21.15;58.67;101620.97;5242921;28;20025;-70
2022/08/27 10:02:13;;;;;;;7.75;2.53;;;;;;;21.41;55.36;101625.16;5260243;28;20111;-71
2022/08/27 10:04:48;;;;;;;5.93;2.60;;;;;;;21.42;55.36;101623.34;5243233;28;20033;-70
2022/08/27 10:07:32;;;;;;;6.18;2.95;;;;;;;21.45;55.40;101628.50;5259345;28;20029;-71
2022/08/27 10:10:32;;;;;;;6.00;2.25;;;;;;;21.54;55.18;101628.13;5264664;28;20534;-71
2022/08/27 10:13:10;;;;;;;6.30;2.33;;;;;;;22.04;55.25;101632.00;5281840;28;20393;-70
2022/08/27 10:16:20;;;;;;;7.07;2.75;;;;;;;22.76;52.06;101622.31;5280856;28;20020;-71
2022/08/27 10:18:58;;;;;;;5.65;2.80;;;;;;;22.77;49.88;101616.06;5280836;28;20064;-72
2022/08/27 10:21:52;;;;;;;6.22;2.83;;;;;;;23.19;51.17;101612.16;5279463;28;20033;-70
2022/08/27 10:24:47;;;;;;;7.93;2.55;;;;;;;23.32;51.68;101606.19;5281376;28;20028;-70
2022/08/27 10:27:52;;;;;;;3.60;2.20;;;;;;;23.23;50.79;101604.88;5283574;28;20189;-71
2022/08/27 10:30:45;;;;;;;8.27;2.95;;;;;;;23.40;51.18;101610.16;5266835;28;20033;-70
2022/08/27 10:33:23;;;;;;;6.45;3.08;;;;;;;22.95;52.65;101604.47;5285037;28;20033;-70
2022/08/27 10:36:04;;;;;;;5.88;2.83;;;;;;;22.63;50.70;101607.94;5268919;28;20033;-70
2022/08/27 10:38:40;;;;;;;5.38;2.45;;;;;;;22.84;50.90;101608.63;5263770;28;20577;-70
2022/08/27 10:41:24;;;;;;;6.80;2.40;;;;;;;22.54;51.04;101594.19;5263475;28;20072;-70
2022/08/27 10:44:10;;;;;;;6.47;2.55;;;;;;;22.21;52.20;101602.00;5264510;28;20035;-71
2022/08/27 10:47:18;;;;;;;6.45;2.90;;;;;;;21.95;52.83;101612.06;5281939;28;20397;-70
2022/08/27 10:50:06;;;;;;;9.85;3.80;;;;;;;21.59;53.33;101606.69;5285206;28;20032;-70
2022/08/27 10:52:54;;;;;;;4.88;2.70;;;;;;;21.31;55.21;101610.56;5284390;28;20127;-70
2022/08/27 10:55:50;;;;;;;15.13;3.55;;;;;;;21.30;55.40;101604.41;5285137;28;20052;-70
2022/08/27 10:58:36;;;;;;;7.20;2.90;;;;;;;21.02;55.25;101604.75;5284533;28;20024;-70
2022/08/27 11:01:20;;;;;;;5.70;2.28;;;;;;;21.02;55.63;101606.56;5283024;28;20028;-71
2022/08/27 11:04:02;;;;;;;6.00;2.65;;;;;;;21.03;55.01;101606.47;5285049;28;20028;-71
2022/08/27 11:06:43;;;;;;;6.90;2.40;;;;;;;21.04;54.97;101608.22;5285085;28;20028;-70
2022/08/27 11:09:33;;;;;;;5.55;2.80;;;;;;;21.06;55.17;101602.84;5284810;28;20098;-71
2022/08/27 11:12:08;;;;;;;10.10;3.25;;;;;;;21.29;59.67;101607.13;5284882;28;20119;-71
2022/08/27 11:14:57;;;;;;;5.65;2.55;;;;;;;21.52;56.43;101598.16;5280361;28;20082;-72
2022/08/27 11:17:36;;;;;;;5.13;2.15;;;;;;;21.47;53.42;101595.66;5264006;28;20036;-69
2022/08/27 11:20:17;;;;;;;8.43;2.83;;;;;;;21.72;54.96;101599.88;5246435;28;20033;-70
2022/08/27 11:23:07;;;;;;;5.97;2.55;;;;;;;21.58;53.53;101597.88;5264104;28;20048;-70
2022/08/27 11:26:02;;;;;;;4.78;2.50;;;;;;;21.62;55.49;101595.94;5273363;28;20040;-70
2022/08/27 11:28:47;;;;;;;5.03;2.25;;;;;;;21.58;56.09;101586.41;5266812;28;20358;-70
2022/08/27 11:31:27;;;;;;;5.32;2.17;;;;;;;21.85;54.29;101593.06;5284568;28;20040;-70
2022/08/27 11:34:01;;;;;;;6.10;2.00;;;;;;;21.84;54.61;101595.78;5284267;28;20029;-71
2022/08/27 11:36:35;;;;;;;3.78;1.85;;;;;;;22.19;51.54;101593.25;5266390;28;20043;-71
2022/08/27 11:39:27;;;;;;;7.00;2.15;;;;;;;22.42;52.57;101585.97;5282560;28;20081;-70
2022/08/27 11:42:10;;;;;;;4.75;1.83;;;;;;;22.58;54.61;101585.09;5282900;28;20473;-70
2022/08/27 11:44:44;;;;;;;5.68;2.13;;;;;;;22.64;54.99;101586.59;5288970;28;20032;-70
2022/08/27 11:47:22;;;;;;;5.00;2.20;;;;;;;22.56;53.55;101586.97;5285543;28;20138;-72
2022/08/27 11:49:57;;;;;;;3.88;1.85;;;;;;;22.39;52.11;101589.63;5284279;28;20406;-71
2022/08/27 11:52:36;;;;;;;3.63;1.98;;;;;;;22.25;50.88;101589.41;5283887;28;20063;-70
2022/08/27 11:55:20;;;;;;;5.65;2.08;;;;;;;22.18;51.21;101595.00;5274882;28;20028;-71
2022/08/27 11:58:05;;;;;;;9.75;2.15;;;;;;;22.38;53.09;101587.94;5262907;28;20174;-70
2022/08/27 12:00:41;;;;;;;4.25;1.90;;;;;;;22.17;51.70;101590.66;5262847;28;20032;-70
2022/08/27 12:03:18;;;;;;;8.38;2.00;;;;;;;22.00;51.57;101593.25;5262738;28;20112;-70
2022/08/27 12:05:52;;;;;;;3.63;1.60;;;;;;;21.96;52.40;101587.25;5274031;28;20033;-71
2022/08/27 12:08:24;;;;;;;6.07;2.05;;;;;;;21.77;51.33;101587.25;5283339;28;20035;-71
2022/08/27 12:11:01;;;;;;;5.55;2.20;;;;;;;21.85;51.76;101578.94;5283555;28;20115;-71